Time;durP1;ratioP1;P1;durP2;ratioP2;P2;SDS_P1;SDS_P2;PMS_P1;PMS_P2;Temp;Humidity;BMP_temperature;BMP_pressure;BME280_temperature;BME280_humidity;BME280_pressure;Samples;Min_cycle;Max_cycle;Signal;HPM_P1;HPM_P2
2023/01/04 00:01:46;;;;;;;28.90;5.80;;;12.70;99.90;;;11.98;100.00;102269.78;3982957;29;20031;-76
2023/01/04 00:03:47;;;;;;;27.92;4.53;;;12.70;99.90;;;11.93;100.00;102253.47;3986101;29;20037;-76
2023/01/04 00:05:48;;;;;;;36.70;6.00;;;12.70;99.90;;;11.98;100.00;102259.19;3981707;29;20034;-76
2023/01/04 00:07:49;;;;;;;37.95;5.25;;;12.70;99.90;;;12.01;100.00;102262.44;3982875;29;20031;-76
2023/01/04 00:09:50;;;;;;;26.48;4.35;;;12.70;99.90;;;11.94;100.00;102242.78;3987526;29;20030;-76
2023/01/04 00:11:51;;;;;;;27.77;6.05;;;12.70;99.90;;;11.95;100.00;102259.47;3981443;29;20088;-76
2023/01/04 00:13:57;;;;;;;28.85;5.13;;;12.70;99.90;;;12.05;100.00;102240.06;3984832;29;20035;-76
2023/01/04 00:16:02;;;;;;;24.85;4.18;;;12.70;99.90;;;12.02;100.00;102242.97;3981543;29;20085;-76
2023/01/04 00:18:03;;;;;;;28.80;4.65;;;12.70;99.90;;;12.10;100.00;102239.66;3983539;29;20031;-76
2023/01/04 00:20:04;;;;;;;30.88;5.07;;;12.70;99.90;;;12.03;100.00;102244.66;3983389;29;20389;-76
2023/01/04 00:22:05;;;;;;;27.40;4.97;;;12.70;99.90;;;12.07;100.00;102239.91;3982712;29;20530;-76
2023/01/04 00:24:08;;;;;;;23.05;4.60;;;12.80;99.90;;;12.04;100.00;102237.53;3988772;29;20038;-76
2023/01/04 00:26:16;;;;;;;32.95;5.30;;;12.70;99.90;;;12.03;100.00;102244.66;4000299;29;20060;-76
2023/01/04 00:28:17;;;;;;;21.85;5.28;;;12.80;99.90;;;12.03;100.00;102249.94;3996231;29;20526;-76
2023/01/04 00:30:18;;;;;;;25.45;5.57;;;12.80;99.90;;;12.07;100.00;102240.75;3996566;29;20117;-76
2023/01/04 00:32:19;;;;;;;38.25;5.03;;;12.80;99.90;;;12.06;100.00;102249.69;3996043;29;20067;-76
2023/01/04 00:34:19;;;;;;;28.15;5.07;;;12.80;99.90;;;12.07;100.00;102251.34;4011170;29;20046;-77
2023/01/04 00:36:21;;;;;;;29.77;5.97;;;12.80;99.90;;;12.02;100.00;102258.84;3982893;29;20039;-76
2023/01/04 00:38:22;;;;;;;29.63;5.03;;;12.80;99.90;;;12.08;100.00;102258.31;3983109;29;20019;-76
2023/01/04 00:40:23;;;;;;;23.17;4.95;;;12.80;99.90;;;12.10;100.00;102248.44;3982453;29;20100;-76
2023/01/04 00:42:24;;;;;;;29.15;6.45;;;12.80;99.90;;;12.09;100.00;102253.88;3981250;29;20055;-76
2023/01/04 00:44:25;;;;;;;44.65;6.00;;;12.80;99.90;;;12.05;100.00;102252.44;3988720;29;20518;-76
2023/01/04 00:46:26;;;;;;;25.35;3.97;;;12.80;99.90;;;12.08;100.00;102247.75;3981427;29;20076;-76
2023/01/04 00:48:29;;;;;;;19.20;3.45;;;12.80;99.90;;;12.10;100.00;102248.44;3985798;29;20030;-76
2023/01/04 00:50:30;;;;;;;23.77;4.53;;;12.80;99.90;;;12.14;100.00;102246.38;4000256;29;20076;-76
2023/01/04 00:52:30;;;;;;;25.25;5.10;;;12.80;99.90;;;12.13;100.00;102237.59;3995998;29;20479;-76
2023/01/04 00:54:31;;;;;;;26.23;3.88;;;12.80;99.90;;;12.10;100.00;102256.38;3987966;29;20034;-76
2023/01/04 00:56:33;;;;;;;21.67;3.28;;;12.80;99.90;;;12.17;100.00;102236.38;3984310;29;20113;-76
2023/01/04 00:58:34;;;;;;;21.63;4.40;;;12.90;99.90;;;12.20;100.00;102248.50;4001222;29;20033;-76
2023/01/04 01:00:36;;;;;;;24.75;3.95;;;12.90;99.90;;;12.09;100.00;102240.66;3982953;29;20519;-76
2023/01/04 01:02:36;;;;;;;28.85;4.65;;;12.80;99.90;;;12.16;100.00;102242.63;3980970;29;20560;-76
2023/01/04 01:04:37;;;;;;;27.48;3.97;;;12.80;99.90;;;12.17;100.00;102240.81;3984911;29;20038;-76
2023/01/04 01:06:39;;;;;;;21.90;4.18;;;12.80;99.90;;;12.15;100.00;102237.47;3981886;29;20027;-76
2023/01/04 01:08:39;;;;;;;20.17;3.60;;;12.90;99.90;;;12.18;100.00;102231.94;3984558;29;20452;-76
2023/01/04 01:10:40;;;;;;;18.35;3.03;;;12.90;99.90;;;12.21;100.00;102221.91;3980811;29;20030;-76
2023/01/04 01:12:41;;;;;;;19.33;3.17;;;12.90;99.90;;;12.29;100.00;102234.50;3980943;29;20031;-76
2023/01/04 01:14:42;;;;;;;25.00;3.42;;;12.90;99.90;;;12.15;100.00;102222.47;3991696;29;20034;-76
2023/01/04 01:16:43;;;;;;;11.77;3.80;;;12.90;99.90;;;12.20;100.00;102238.78;3997230;29;20499;-76
2023/01/04 01:18:44;;;;;;;20.58;3.97;;;12.90;99.90;;;12.26;100.00;102229.47;3983625;29;20041;-76
2023/01/04 01:20:45;;;;;;;18.08;3.88;;;12.90;99.90;;;12.16;100.00;102218.81;3965603;29;20043;-76
2023/01/04 01:22:46;;;;;;;24.92;5.03;;;12.90;99.90;;;12.11;100.00;102221.03;3980453;29;20035;-76
2023/01/04 01:24:48;;;;;;;22.73;6.13;;;12.90;99.90;;;12.06;100.00;102223.22;3990643;29;20038;-76
2023/01/04 01:26:49;;;;;;;17.63;3.72;;;12.80;99.90;;;12.07;100.00;102224.03;3981717;29;20027;-76
2023/01/04 01:28:51;;;;;;;19.42;4.85;;;12.80;99.90;;;12.11;100.00;102231.59;3987286;29;20030;-76
2023/01/04 01:30:52;;;;;;;20.10;4.25;;;12.80;99.90;;;12.09;100.00;102222.13;3999943;29;20030;-76
2023/01/04 01:32:53;;;;;;;21.90;4.20;;;12.80;99.90;;;12.10;100.00;102235.22;3981311;29;20030;-76
2023/01/04 01:34:54;;;;;;;15.45;3.28;;;12.80;99.90;;;12.09;100.00;102232.72;3986902;29;20039;-76
2023/01/04 01:36:55;;;;;;;21.52;4.40;;;12.80;99.90;;;12.09;100.00;102232.72;3981701;29;20035;-76
2023/01/04 01:38:56;;;;;;;23.63;5.40;;;12.80;99.90;;;12.15;100.00;102238.34;3981222;29;20047;-76
2023/01/04 01:40:56;;;;;;;24.60;5.68;;;12.80;99.90;;;12.10;100.00;102237.00;3981941;29;20088;-76
2023/01/04 01:42:57;;;;;;;24.20;4.15;;;12.80;99.90;;;12.08;100.00;102238.97;3983042;29;20086;-76
2023/01/04 01:45:09;;;;;;;28.70;4.70;;;12.80;99.90;;;12.11;100.00;102242.19;3985878;29;20034;-76
2023/01/04 01:47:23;;;;;;;23.48;4.40;;;12.80;99.90;;;12.06;100.00;102223.22;3980267;29;20034;-76
2023/01/04 01:49:38;;;;;;;17.10;4.07;;;12.80;99.90;;;12.06;100.00;102241.75;3986257;29;20596;-76
2023/01/04 01:51:40;;;;;;;17.35;4.10;;;12.80;99.90;;;12.15;100.00;102237.47;4002532;29;20041;-76
2023/01/04 01:53:53;;;;;;;25.58;4.20;;;12.80;99.90;;;12.10;100.00;102234.38;3995056;29;20041;-76
2023/01/04 01:55:56;;;;;;;27.58;4.72;;;12.80;99.90;;;12.07;100.00;102224.88;3983382;29;20031;-76
2023/01/04 01:57:59;;;;;;;23.67;4.43;;;12.80;99.90;;;12.11;100.00;102223.66;3988815;29;20042;-76
2023/01/04 02:00:11;;;;;;;19.83;4.05;;;12.80;99.90;;;12.16;100.00;102221.47;3989058;29;20034;-76
2023/01/04 02:02:12;;;;;;;25.92;3.55;;;12.80;99.90;;;12.10;100.00;102216.69;3982776;29;20034;-77
2023/01/04 02:04:15;;;;;;;19.02;3.72;;;12.80;99.90;;;12.05;100.00;102220.69;3991695;29;20035;-76
2023/01/04 02:06:30;;;;;;;28.10;5.03;;;12.80;99.90;;;12.13;100.00;102228.81;3979996;29;20068;-76
2023/01/04 02:08:31;;;;;;;22.27;4.68;;;12.80;99.90;;;12.11;100.00;102228.97;3983387;29;20065;-76
2023/01/04 02:10:33;;;;;;;26.98;4.75;;;12.80;99.90;;;12.16;100.00;102226.75;3981339;29;20035;-76
2023/01/04 02:12:34;;;;;;;19.20;4.25;;;12.90;99.90;;;12.16;100.00;102224.09;3979951;29;20026;-76
2023/01/04 02:14:34;;;;;;;36.67;6.65;;;12.90;99.90;;;12.19;100.00;102226.50;3987845;29;20102;-76
2023/01/04 02:17:03;;;;;;;27.17;6.25;;;12.90;99.90;;;12.25;100.00;102221.66;3997680;29;20035;-76
2023/01/04 02:19:29;;;;;;;37.15;5.82;;;13.00;99.90;;;12.25;100.00;102221.66;3982199;29;20090;-76
2023/01/04 02:22:27;;;;;;;36.15;7.40;;;13.00;99.90;;;12.16;100.00;102228.56;3980806;29;20095;-76
2023/01/04 02:25:04;;;;;;;31.50;6.03;;;13.00;99.90;;;12.18;100.00;102219.53;3982732;29;20047;-76
2023/01/04 02:27:34;;;;;;;30.33;5.03;;;13.00;99.90;;;12.27;100.00;102225.03;3972086;29;20031;-76
2023/01/04 02:30:11;;;;;;;35.28;6.32;;;13.00;99.90;;;12.23;100.00;102219.16;3991985;29;20376;-76
2023/01/04 02:32:38;;;;;;;32.00;7.05;;;13.00;99.90;;;12.26;100.00;102215.41;3980648;29;20492;-76
2023/01/04 02:35:36;;;;;;;33.00;5.57;;;13.00;99.90;;;12.22;100.00;102220.09;3986860;29;20034;-76
2023/01/04 02:38:13;;;;;;;33.38;5.88;;;13.00;99.90;;;12.31;100.00;102218.47;3979189;29;20045;-76
2023/01/04 02:40:53;;;;;;;31.23;6.45;;;13.00;99.90;;;12.25;100.00;102222.50;3979834;29;20027;-76
2023/01/04 02:45:56;;;;;;;34.05;5.05;;;13.10;99.90;;;12.24;100.00;102215.53;3980542;29;20046;-76
2023/01/04 02:50:48;;;;;;;29.77;5.20;;;13.00;99.90;;;12.24;100.00;102230.56;3976059;29;20050;-76
2023/01/04 02:52:49;;;;;;;33.28;5.38;;;13.00;99.90;;;12.33;100.00;102227.16;3979256;29;20050;-76
2023/01/04 02:54:54;;;;;;;38.35;6.45;;;13.00;99.90;;;12.29;100.00;102215.97;3981010;29;20047;-76
2023/01/04 02:57:31;;;;;;;41.17;6.25;;;13.00;99.90;;;12.38;100.00;102227.56;3979795;29;20039;-76
2023/01/04 02:59:59;;;;;;;28.75;5.18;;;13.10;99.90;;;12.34;100.00;102226.16;3984124;29;20035;-76
2023/01/04 03:08:21;;;;;;;33.80;5.73;;;13.10;99.90;;;12.33;100.00;102227.16;3980328;29;20596;-76
2023/01/04 03:10:58;;;;;;;30.63;5.78;;;13.20;99.90;;;12.34;100.00;102224.34;3979240;29;20368;-76
2023/01/04 03:13:39;;;;;;;29.67;5.65;;;13.10;99.90;;;12.41;100.00;102220.22;3979415;29;20027;-76
2023/01/04 03:15:43;;;;;;;28.83;6.18;;;13.10;99.90;;;12.43;100.00;102217.44;3974646;29;20050;-76
2023/01/04 03:17:51;;;;;;;;;;;13.20;99.90;;;12.36;100.00;102218.94;3994812;29;20035;-76
2023/01/04 03:19:55;;;;;;;36.13;5.45;;;13.20;99.90;;;12.41;100.00;102216.72;3996039;29;19916;-76
2023/01/04 03:21:56;;;;;;;33.97;5.43;;;13.20;99.90;;;12.41;100.00;102208.78;3979472;29;20121;-76
2023/01/04 03:37:05;;;;;;;32.53;7.95;;;13.10;99.90;;;12.30;100.00;102215.00;3981363;29;20083;-76
2023/01/04 03:50:04;;;;;;;30.23;5.95;;;13.10;99.90;;;12.31;100.00;102215.84;3983576;29;20064;-76
2023/01/04 03:52:08;;;;;;;34.75;7.45;;;13.10;99.90;;;12.24;100.00;102193.53;3979114;29;20110;-76
2023/01/04 03:54:23;;;;;;;28.90;5.18;;;13.10;99.90;;;12.21;100.00;102199.94;3980426;29;20030;-76
2023/01/04 03:56:28;;;;;;;33.67;5.88;;;13.00;99.90;;;12.27;100.00;102198.56;3979272;29;20035;-76
2023/01/04 03:58:29;;;;;;;27.38;5.72;;;13.00;99.90;;;12.19;100.00;102213.28;3983170;29;20050;-76
2023/01/04 04:00:30;;;;;;;35.15;6.90;;;13.00;99.90;;;12.27;100.00;102214.44;3998361;29;20038;-76
2023/01/04 04:02:33;;;;;;;26.92;5.20;;;13.00;99.90;;;12.32;100.00;102221.00;3996766;29;20042;-76
2023/01/04 04:09:14;;;;;;;32.55;5.43;;;13.00;99.90;;;12.23;100.00;102213.00;3983894;29;20061;-76
2023/01/04 04:11:30;;;;;;;28.73;5.45;;;13.00;99.90;;;12.35;100.00;102196.09;3982784;29;20040;-76
2023/01/04 04:13:31;;;;;;;32.28;6.95;;;13.00;99.90;;;12.24;100.00;102193.53;3982665;29;20105;-76
2023/01/04 04:15:32;;;;;;;27.33;5.30;;;13.00;99.90;;;12.22;100.00;102201.59;3991139;29;20031;-76
2023/01/04 04:17:33;;;;;;;33.28;6.97;;;13.00;99.90;;;12.27;100.00;102204.69;3982710;29;20080;-76
2023/01/04 04:19:34;;;;;;;30.85;5.45;;;13.00;99.90;;;12.27;100.00;102191.47;3983034;29;20035;-76
2023/01/04 04:21:35;;;;;;;29.48;5.63;;;13.00;99.90;;;12.24;100.00;102190.88;3982590;29;20037;-77
2023/01/04 04:23:36;;;;;;;22.15;4.72;;;13.00;99.90;;;12.29;100.00;102186.03;3982445;29;20026;-76
2023/01/04 04:25:37;;;;;;;29.73;5.35;;;13.10;99.90;;;12.31;100.00;102192.00;3989042;29;20057;-76
2023/01/04 04:27:38;;;;;;;34.03;5.43;;;13.10;99.90;;;12.35;100.00;102193.44;3966333;30;20039;-76
2023/01/04 04:29:39;;;;;;;24.20;5.18;;;13.10;99.90;;;12.41;100.00;102196.41;3993131;29;20091;-76
2023/01/04 04:31:40;;;;;;;19.58;3.28;;;13.10;99.90;;;12.33;100.00;102179.50;3970300;29;20063;-76
2023/01/04 04:33:41;;;;;;;25.42;4.13;;;13.10;99.90;;;12.35;100.00;102183.69;3981356;29;20034;-76
2023/01/04 04:35:42;;;;;;;16.80;4.57;;;13.10;99.90;;;12.39;100.00;102184.28;3987885;29;20039;-76
2023/01/04 04:37:42;;;;;;;23.42;4.78;;;13.10;99.90;;;12.31;100.00;102197.31;3982201;29;20034;-76
2023/01/04 04:39:43;;;;;;;17.80;3.30;;;13.10;99.90;;;12.34;100.00;102183.81;3983397;29;20038;-76
2023/01/04 04:41:44;;;;;;;21.27;3.45;;;13.10;99.90;;;12.25;100.00;102181.97;3982416;29;20059;-76
2023/01/04 04:43:45;;;;;;;16.50;2.80;;;13.10;99.90;;;12.29;100.00;102186.03;3981116;29;20072;-76
2023/01/04 04:45:46;;;;;;;17.50;2.90;;;13.10;99.90;;;12.24;100.00;102189.09;3984497;29;20054;-76
2023/01/04 04:47:47;;;;;;;17.02;2.92;;;13.10;99.90;;;12.23;100.00;102175.97;3982122;29;20087;-76
2023/01/04 04:49:48;;;;;;;11.20;2.58;;;13.00;99.90;;;12.19;100.00;102197.41;3987145;29;20054;-76
2023/01/04 04:51:49;;;;;;;15.63;2.80;;;13.00;99.90;;;12.25;100.00;102192.53;3981134;29;20031;-76
2023/01/04 04:53:49;;;;;;;14.70;3.38;;;13.00;99.90;;;12.23;100.00;102187.41;3987337;29;20034;-76
2023/01/04 04:55:52;;;;;;;15.95;3.22;;;13.00;99.90;;;12.27;100.00;102199.41;3996861;29;20039;-76
2023/01/04 04:57:53;;;;;;;17.50;3.28;;;13.00;99.90;;;12.29;100.00;102193.97;3990290;29;20034;-76
2023/01/04 04:59:54;;;;;;;14.13;2.65;;;13.10;99.90;;;12.37;100.00;102199.44;3985285;29;20584;-76
2023/01/04 05:01:55;;;;;;;13.13;2.38;;;13.10;99.90;;;12.34;100.00;102199.69;3981899;29;20043;-76
2023/01/04 05:03:56;;;;;;;20.55;3.75;;;13.10;99.90;;;12.32;100.00;102199.00;3984221;29;20061;-76
2023/01/04 05:05:57;;;;;;;16.52;2.83;;;13.10;99.90;;;12.31;100.00;102205.25;3980835;29;20030;-76
2023/01/04 05:07:58;;;;;;;15.02;3.75;;;13.10;99.90;;;12.36;100.00;102211.00;3987993;29;20583;-76
2023/01/04 05:09:59;;;;;;;15.07;3.40;;;13.10;99.90;;;12.38;100.00;102204.59;3984112;29;20088;-76
2023/01/04 05:14:19;;;;;;;25.25;3.70;;;13.10;99.90;;;12.44;100.00;102197.94;3983224;29;20042;-76
2023/01/04 05:16:20;;;;;;;22.23;4.95;;;13.20;99.90;;;12.42;100.00;102208.69;3980824;29;20039;-76
2023/01/04 05:18:22;;;;;;;20.23;3.75;;;13.20;99.90;;;12.46;100.00;102207.41;3981730;29;20031;-76
2023/01/04 05:20:23;;;;;;;31.50;5.20;;;13.20;99.90;;;12.37;100.00;102199.44;3980894;29;20064;-76
2023/01/04 05:22:24;;;;;;;24.77;4.03;;;13.20;99.90;;;12.39;100.00;102201.00;3981867;29;20030;-76
2023/01/04 05:24:25;;;;;;;20.58;3.78;;;13.20;99.90;;;12.46;100.00;102199.47;3990818;29;20046;-77
2023/01/04 05:26:25;;;;;;;21.00;4.25;;;13.20;99.90;;;12.36;100.00;102197.78;3997502;29;20058;-76
2023/01/04 05:28:27;;;;;;;30.25;4.75;;;13.20;99.90;;;12.34;100.00;102194.41;3981091;29;20109;-76
2023/01/04 05:32:47;;;;;;;18.95;3.03;;;13.20;99.90;;;12.40;100.00;102194.72;3981640;29;20077;-76
2023/01/04 05:34:48;;;;;;;17.02;3.50;;;13.20;99.90;;;12.38;100.00;102199.31;3990813;29;20026;-76
2023/01/04 05:36:49;;;;;;;20.30;4.38;;;13.20;99.90;;;12.43;100.00;102205.03;3990304;29;20042;-77
2023/01/04 05:38:50;;;;;;;23.45;4.05;;;13.20;99.90;;;12.44;100.00;102198.78;3984162;29;20035;-76
2023/01/04 05:40:51;;;;;;;29.60;5.47;;;13.20;99.90;;;12.44;100.00;102190.84;3981316;29;20038;-76
2023/01/04 05:42:52;;;;;;;27.30;4.03;;;13.20;99.90;;;12.39;100.00;102192.22;3981084;29;20035;-77
2023/01/04 05:44:55;;;;;;;26.15;3.85;;;13.20;99.90;;;12.36;100.00;102190.69;3986494;29;20042;-76
2023/01/04 05:46:56;;;;;;;24.55;4.43;;;13.20;99.90;;;12.38;100.00;102207.25;3980261;29;20047;-76
2023/01/04 05:48:57;;;;;;;21.90;5.05;;;13.20;99.90;;;12.38;100.00;102211.69;3990013;29;20056;-76
2023/01/04 05:50:58;;;;;;;24.98;4.75;;;13.20;99.90;;;12.36;100.00;102200.41;3981371;29;20069;-76
2023/01/04 05:52:58;;;;;;;26.00;4.60;;;13.10;99.90;;;12.42;100.00;102207.84;3979408;29;20031;-76
2023/01/04 05:54:59;;;;;;;24.30;3.92;;;13.10;99.90;;;12.39;100.00;102194.88;3985415;29;20034;-76
2023/01/04 05:57:00;;;;;;;23.70;3.90;;;13.10;99.90;;;12.30;100.00;102196.50;3981234;29;20031;-77
2023/01/04 05:59:01;;;;;;;28.55;5.60;;;13.10;99.90;;;12.32;100.00;102213.06;3987257;29;20050;-76
2023/01/04 06:01:02;;;;;;;32.92;5.55;;;13.10;99.90;;;12.34;100.00;102205.81;3980140;29;20035;-76
2023/01/04 06:03:03;;;;;;;27.90;6.63;;;13.10;99.90;;;12.30;100.00;102208.88;3981174;29;20069;-77
2023/01/04 06:05:05;;;;;;;26.10;5.30;;;13.10;99.90;;;12.32;100.00;102221.00;3982803;29;20041;-76
2023/01/04 06:07:06;;;;;;;32.65;5.57;;;13.10;99.90;;;12.31;100.00;102216.66;3964889;30;20067;-76
2023/01/04 06:09:06;;;;;;;29.13;5.10;;;13.10;99.90;;;12.33;100.00;102216.56;3984908;29;20495;-76
2023/01/04 06:11:07;;;;;;;27.17;5.28;;;13.10;99.90;;;12.27;100.00;102217.94;3981095;29;20039;-76
2023/01/04 06:13:08;;;;;;;28.95;4.97;;;13.00;99.90;;;12.24;100.00;102217.34;3981065;29;20043;-76
2023/01/04 06:15:10;;;;;;;31.10;6.60;;;13.00;99.90;;;12.29;100.00;102228.38;3981262;29;20030;-76
2023/01/04 06:17:11;;;;;;;22.92;5.43;;;13.00;99.90;;;12.35;100.00;102228.69;3980033;29;20091;-76
2023/01/04 06:19:12;;;;;;;37.55;5.32;;;13.00;99.90;;;12.29;100.00;102223.06;3983399;29;20495;-76
2023/01/04 06:21:13;;;;;;;27.05;6.43;;;13.00;99.90;;;12.34;100.00;102227.00;3979724;29;20076;-76
2023/01/04 06:23:14;;;;;;;30.73;5.22;;;13.00;99.90;;;12.28;100.00;102224.03;3980693;29;20070;-76
2023/01/04 06:25:16;;;;;;;31.33;6.68;;;13.00;99.90;;;12.26;100.00;102237.41;3990740;29;20039;-76
2023/01/04 06:27:17;;;;;;;27.55;5.90;;;13.00;99.90;;;12.23;100.00;102227.09;3980940;29;20031;-76
2023/01/04 06:29:17;;;;;;;29.92;5.78;;;13.00;99.90;;;12.21;100.00;102237.78;3992031;29;20410;-76
2023/01/04 06:31:18;;;;;;;33.50;6.95;;;13.00;99.90;;;12.23;100.00;102236.81;3981469;29;20050;-76
2023/01/04 06:33:20;;;;;;;30.85;6.80;;;13.00;99.90;;;12.31;100.00;102237.84;3981153;29;20084;-76
2023/01/04 06:35:21;;;;;;;31.05;5.90;;;13.00;99.90;;;12.30;100.00;102243.28;3988159;29;20070;-76
2023/01/04 06:37:22;;;;;;;33.30;4.68;;;13.00;99.90;;;12.27;100.00;102236.44;3979754;29;20046;-77
2023/01/04 06:39:22;;;;;;;35.05;5.03;;;13.00;99.90;;;12.28;100.00;102237.25;3981288;29;20051;-76
2023/01/04 06:41:24;;;;;;;42.58;5.85;;;13.00;99.90;;;12.20;100.00;102230.00;3980800;29;20027;-76
2023/01/04 06:43:25;;;;;;;40.08;6.72;;;13.00;99.90;;;12.19;100.00;102238.88;3981459;29;20041;-77
2023/01/04 06:45:25;;;;;;;38.78;6.10;;;13.00;99.90;;;12.20;100.00;102240.56;3984683;29;20113;-77
2023/01/04 06:47:26;;;;;;;29.83;5.38;;;13.00;99.90;;;12.21;100.00;102240.41;3979390;29;20096;-77
2023/01/04 06:49:27;;;;;;;30.33;4.97;;;13.00;99.90;;;12.30;100.00;102243.28;3988361;29;20062;-77
2023/01/04 06:51:28;;;;;;;30.17;6.53;;;13.00;99.90;;;12.28;100.00;102231.97;3980647;29;20453;-77
2023/01/04 06:53:29;;;;;;;33.03;5.72;;;13.00;99.90;;;12.30;100.00;102232.69;3980538;29;20035;-76
2023/01/04 06:55:30;;;;;;;34.10;5.05;;;13.00;99.90;;;12.27;100.00;102240.91;3982372;29;20047;-77
2023/01/04 06:57:31;;;;;;;33.75;5.85;;;13.00;99.90;;;12.32;100.00;102236.03;3979454;29;20522;-76
2023/01/04 06:59:32;;;;;;;32.80;5.32;;;13.00;99.90;;;12.29;100.00;102237.16;3987258;29;20030;-76
2023/01/04 07:01:33;;;;;;;36.90;6.55;;;13.00;99.90;;;12.30;100.00;102243.28;3980598;29;20046;-76
2023/01/04 07:03:34;;;;;;;37.17;6.47;;;13.00;99.90;;;12.31;100.00;102245.78;3982267;29;20449;-76
2023/01/04 07:05:35;;;;;;;37.72;5.93;;;13.10;99.90;;;12.29;100.00;102244.22;3983318;29;20054;-76
2023/01/04 07:07:35;;;;;;;33.67;5.97;;;13.00;99.90;;;12.36;100.00;102245.41;4003667;29;20091;-76
2023/01/04 07:09:38;;;;;;;34.60;6.15;;;13.00;99.90;;;12.26;100.00;102239.19;3998611;29;20072;-76
2023/01/04 07:11:39;;;;;;;40.60;5.25;;;13.00;99.90;;;12.28;100.00;102247.84;3994396;29;20090;-76
2023/01/04 07:13:39;;;;;;;34.67;6.93;;;13.00;99.90;;;12.28;100.00;102253.13;3981256;29;20043;-76
2023/01/04 07:15:40;;;;;;;35.20;6.03;;;13.00;99.90;;;12.32;100.00;102251.91;3989164;29;20533;-77
2023/01/04 07:17:41;;;;;;;30.30;5.97;;;13.00;99.90;;;12.30;100.00;102240.63;3980532;29;20118;-76
2023/01/04 07:19:42;;;;;;;30.05;4.47;;;13.00;99.90;;;12.25;100.00;102256.03;3981633;29;20038;-76
2023/01/04 07:21:43;;;;;;;29.85;5.05;;;13.10;99.90;;;12.28;100.00;102266.34;3979153;29;20035;-77
2023/01/04 07:23:44;;;;;;;24.17;4.45;;;13.00;99.90;;;12.32;100.00;102257.22;3981391;29;20388;-77
2023/01/04 07:25:45;;;;;;;29.45;4.18;;;13.00;99.90;;;12.30;100.00;102257.34;3987762;29;20038;-77
2023/01/04 07:27:52;;;;;;;26.88;5.60;;;13.10;99.90;;;12.26;100.00;102261.22;3979285;29;20050;-77
2023/01/04 07:29:52;;;;;;;41.25;4.78;;;13.00;99.90;;;12.27;100.00;102256.78;3980606;29;20068;-77
2023/01/04 07:31:54;;;;;;;49.95;5.82;;;13.00;99.90;;;12.29;100.00;102265.41;3979939;29;20047;-77
2023/01/04 07:33:55;;;;;;;25.02;5.28;;;13.00;99.90;;;12.34;100.00;102279.06;3988223;29;20034;-77
2023/01/04 07:36:02;;;;;;;20.67;4.35;;;13.00;99.90;;;12.27;100.00;102272.66;3987121;29;20090;-77
2023/01/04 07:38:03;;;;;;;19.80;3.65;;;13.00;99.90;;;12.27;100.00;102270.84;3982489;29;20065;-77
2023/01/04 07:40:05;;;;;;;19.90;4.50;;;13.00;99.90;;;12.24;100.00;102265.81;3984824;29;20023;-77
2023/01/04 07:42:06;;;;;;;17.95;3.20;;;13.00;99.90;;;12.29;100.00;102276.00;3981890;29;20410;-77
2023/01/04 07:44:08;;;;;;;18.38;3.03;;;13.00;99.90;;;12.21;100.00;102269.53;3983296;29;20039;-78
2023/01/04 07:46:09;;;;;;;20.88;3.88;;;12.90;99.90;;;12.27;100.00;102283.22;3981866;29;20116;-77
2023/01/04 07:48:10;;;;;;;21.90;4.03;;;13.00;99.90;;;12.23;100.00;102265.91;3984632;29;20069;-77
2023/01/04 07:50:11;;;;;;;13.93;2.50;;;13.00;99.90;;;12.22;100.00;102280.94;4003102;29;20030;-77
2023/01/04 07:52:12;;;;;;;16.23;3.03;;;12.90;99.90;;;12.19;100.00;102282.06;3982986;29;20495;-77
2023/01/04 07:54:15;;;;;;;20.33;4.03;;;12.90;99.90;;;12.21;100.00;102287.22;3985705;29;20042;-77
2023/01/04 07:56:16;;;;;;;12.48;3.22;;;13.00;99.90;;;12.25;100.00;102285.13;3981915;29;20427;-77
2023/01/04 07:58:17;;;;;;;12.18;2.30;;;13.00;99.90;;;12.22;100.00;102288.88;3983988;29;20042;-77
2023/01/04 08:00:18;;;;;;;11.55;1.85;;;13.00;99.90;;;12.27;100.00;102299.94;3986617;29;20038;-77
2023/01/04 08:02:19;;;;;;;10.30;2.50;;;13.00;99.90;;;12.26;100.00;102292.13;3982820;29;20031;-77
2023/01/04 08:04:23;;;;;;;14.57;2.05;;;13.00;99.90;;;12.23;100.00;102314.38;3982715;29;20066;-77
2023/01/04 08:06:23;;;;;;;13.10;2.08;;;12.90;99.90;;;12.26;100.00;102305.34;3983120;29;20160;-77
2023/01/04 08:08:24;;;;;;;18.08;2.58;;;13.00;99.90;;;12.20;100.00;102310.19;3984345;29;20022;-77
2023/01/04 08:10:25;;;;;;;21.75;3.38;;;12.90;99.90;;;12.32;100.00;102318.06;3981810;29;20080;-77
2023/01/04 08:12:26;;;;;;;25.10;4.35;;;13.00;99.90;;;12.29;100.00;102319.16;3982251;29;20531;-77
2023/01/04 08:14:27;;;;;;;19.13;4.22;;;13.00;99.90;;;12.28;100.00;102308.69;3983003;29;20038;-77
2023/01/04 08:16:36;;;;;;;24.58;4.00;;;13.00;99.90;;;12.33;100.00;102331.19;3982925;29;20034;-77
2023/01/04 08:18:37;;;;;;;25.58;4.55;;;13.00;99.90;;;12.29;100.00;102318.31;3967743;29;20065;-77
2023/01/04 08:20:38;;;;;;;34.42;5.47;;;13.00;99.90;;;12.29;100.00;102320.97;3982519;29;20083;-77
2023/01/04 08:22:39;;;;;;;29.20;6.05;;;13.00;99.90;;;12.32;100.00;102323.34;3982050;29;20034;-77
2023/01/04 08:24:41;;;;;;;28.33;5.60;;;13.00;99.90;;;12.29;100.00;102324.47;3982674;29;20479;-77
2023/01/04 08:26:43;;;;;;;27.27;5.03;;;13.00;99.90;;;12.26;100.00;102323.88;3995897;29;20038;-77
2023/01/04 08:28:44;;;;;;;25.80;3.40;;;13.00;99.90;;;12.30;100.00;102318.22;3996466;29;20540;-77
2023/01/04 08:30:45;;;;;;;21.73;4.25;;;13.00;99.90;;;12.27;100.00;102325.56;3988401;29;20067;-77
2023/01/04 08:32:47;;;;;;;21.52;4.03;;;13.00;99.90;;;12.24;100.00;102320.53;3982465;29;20031;-77
2023/01/04 08:34:48;;;;;;;28.25;4.13;;;13.00;99.90;;;12.33;100.00;102335.63;3988011;29;20042;-77
2023/01/04 08:36:52;;;;;;;17.60;3.63;;;13.00;99.90;;;12.27;100.00;102320.28;3981356;29;20524;-77
2023/01/04 08:39:00;;;;;;;16.13;2.70;;;13.00;99.90;;;12.32;100.00;102323.34;3981446;29;20031;-77
2023/01/04 08:41:01;;;;;;;17.58;2.95;;;13.00;99.90;;;12.33;100.00;102328.53;3995911;29;20042;-77
2023/01/04 08:43:02;;;;;;;14.68;3.30;;;13.10;99.90;;;12.33;100.00;102331.19;3982225;29;20094;-77
2023/01/04 08:45:04;;;;;;;13.38;2.63;;;13.10;99.90;;;12.34;100.00;102335.50;3986674;29;20400;-77
2023/01/04 08:47:05;;;;;;;17.52;2.90;;;13.10;99.90;;;12.36;100.00;102332.72;3981096;29;20053;-77
2023/01/04 08:49:06;;;;;;;19.35;4.00;;;13.10;99.90;;;12.37;100.00;102337.03;3988829;29;20539;-77
2023/01/04 08:51:12;;;;;;;17.02;2.70;;;13.10;99.90;;;12.39;100.00;102345.69;3981243;29;20030;-77
2023/01/04 08:53:13;;;;;;;9.77;2.25;;;13.10;99.90;;;12.40;100.00;102350.00;3981082;29;20083;-77
2023/01/04 08:55:15;;;;;;;15.00;2.75;;;13.10;99.90;;;12.46;100.00;102345.03;3984366;29;20038;-77
2023/01/04 08:57:17;;;;;;;16.48;3.42;;;13.10;99.90;;;12.36;100.00;102345.97;3980616;29;20201;-77
2023/01/04 08:59:18;;;;;;;12.63;2.70;;;13.10;99.90;;;12.43;100.00;102365.63;4000780;29;20522;-77
2023/01/04 09:01:19;;;;;;;16.52;2.47;;;13.10;99.90;;;12.44;100.00;102351.44;3980907;29;20052;-77
2023/01/04 09:03:20;;;;;;;14.38;2.75;;;13.10;99.90;;;12.43;100.00;102363.84;3982007;29;20039;-77
2023/01/04 09:05:21;;;;;;;14.68;3.33;;;13.10;99.90;;;12.45;100.00;102355.78;3982407;29;20031;-77
2023/01/04 09:07:22;;;;;;;25.25;3.60;;;13.10;99.90;;;12.45;100.00;102364.56;3980868;29;20027;-77
2023/01/04 09:09:23;;;;;;;21.25;4.57;;;13.20;99.90;;;12.48;100.00;102368.75;3984943;29;20030;-77
2023/01/04 09:11:25;;;;;;;21.30;3.72;;;13.10;99.90;;;12.42;100.00;102354.22;3984160;29;20112;-77